sensor_id;sensor_type;location;lat;lon;timestamp;P1;durP1;ratioP1;P2;durP2;ratioP2
61635;SDS011;59438;45.014;39.006;2023-07-08T00:01:16;6.18;;;3.67;;
61635;SDS011;59438;45.014;39.006;2023-07-08T00:03:45;5.40;;;3.50;;
61635;SDS011;59438;45.014;39.006;2023-07-08T00:06:13;5.25;;;3.70;;
61635;SDS011;59438;45.014;39.006;2023-07-08T00:11:09;8.93;;;3.15;;
61635;SDS011;59438;45.014;39.006;2023-07-08T00:13:37;10.63;;;3.58;;
61635;SDS011;59438;45.014;39.006;2023-07-08T00:16:03;5.05;;;3.13;;
61635;SDS011;59438;45.014;39.006;2023-07-08T00:18:30;5.43;;;3.28;;
61635;SDS011;59438;45.014;39.006;2023-07-08T00:20:58;8.32;;;3.40;;
61635;SDS011;59438;45.014;39.006;2023-07-08T00:23:24;6.38;;;3.40;;
61635;SDS011;59438;45.014;39.006;2023-07-08T00:25:50;6.30;;;3.05;;
61635;SDS011;59438;45.014;39.006;2023-07-08T00:28:17;3.92;;;3.05;;
61635;SDS011;59438;45.014;39.006;2023-07-08T00:30:44;3.85;;;2.80;;
61635;SDS011;59438;45.014;39.006;2023-07-08T00:33:11;5.82;;;2.92;;
61635;SDS011;59438;45.014;39.006;2023-07-08T00:35:38;4.18;;;2.80;;
61635;SDS011;59438;45.014;39.006;2023-07-08T00:38:10;4.18;;;2.80;;
61635;SDS011;59438;45.014;39.006;2023-07-08T00:40:47;4.53;;;2.92;;
61635;SDS011;59438;45.014;39.006;2023-07-08T00:43:15;6.07;;;2.88;;
61635;SDS011;59438;45.014;39.006;2023-07-08T00:45:45;4.65;;;3.05;;
61635;SDS011;59438;45.014;39.006;2023-07-08T00:48:18;6.68;;;3.70;;
61635;SDS011;59438;45.014;39.006;2023-07-08T00:50:59;4.82;;;3.20;;
61635;SDS011;59438;45.014;39.006;2023-07-08T00:53:28;4.55;;;3.40;;
61635;SDS011;59438;45.014;39.006;2023-07-08T00:55:57;5.60;;;3.30;;
61635;SDS011;59438;45.014;39.006;2023-07-08T00:58:34;4.28;;;3.05;;
61635;SDS011;59438;45.014;39.006;2023-07-08T01:01:05;10.20;;;3.72;;
61635;SDS011;59438;45.014;39.006;2023-07-08T01:03:35;6.03;;;3.65;;
61635;SDS011;59438;45.014;39.006;2023-07-08T01:06:06;7.82;;;3.67;;
61635;SDS011;59438;45.014;39.006;2023-07-08T01:08:34;9.15;;;3.85;;
61635;SDS011;59438;45.014;39.006;2023-07-08T01:11:01;4.68;;;3.80;;
61635;SDS011;59438;45.014;39.006;2023-07-08T01:13:32;6.40;;;4.18;;
61635;SDS011;59438;45.014;39.006;2023-07-08T01:16:03;5.88;;;4.18;;
61635;SDS011;59438;45.014;39.006;2023-07-08T01:18:30;5.30;;;4.05;;
61635;SDS011;59438;45.014;39.006;2023-07-08T01:21:00;5.22;;;4.00;;
61635;SDS011;59438;45.014;39.006;2023-07-08T01:23:29;6.63;;;4.18;;
61635;SDS011;59438;45.014;39.006;2023-07-08T01:25:56;6.25;;;4.22;;
61635;SDS011;59438;45.014;39.006;2023-07-08T01:28:22;9.48;;;4.50;;
61635;SDS011;59438;45.014;39.006;2023-07-08T01:30:49;5.05;;;4.15;;
61635;SDS011;59438;45.014;39.006;2023-07-08T01:33:16;9.45;;;4.60;;
61635;SDS011;59438;45.014;39.006;2023-07-08T01:35:45;5.90;;;4.18;;
61635;SDS011;59438;45.014;39.006;2023-07-08T01:38:11;7.05;;;4.60;;
61635;SDS011;59438;45.014;39.006;2023-07-08T01:40:49;6.70;;;4.43;;
61635;SDS011;59438;45.014;39.006;2023-07-08T01:43:16;7.38;;;4.28;;
61635;SDS011;59438;45.014;39.006;2023-07-08T01:45:42;7.65;;;4.85;;
61635;SDS011;59438;45.014;39.006;2023-07-08T01:48:10;8.77;;;4.43;;
61635;SDS011;59438;45.014;39.006;2023-07-08T01:50:40;5.75;;;3.92;;
61635;SDS011;59438;45.014;39.006;2023-07-08T01:53:12;6.50;;;4.03;;
61635;SDS011;59438;45.014;39.006;2023-07-08T01:55:41;6.25;;;4.18;;
61635;SDS011;59438;45.014;39.006;2023-07-08T01:58:09;6.82;;;4.18;;
61635;SDS011;59438;45.014;39.006;2023-07-08T02:00:35;6.68;;;4.53;;
61635;SDS011;59438;45.014;39.006;2023-07-08T02:03:01;6.63;;;4.15;;
61635;SDS011;59438;45.014;39.006;2023-07-08T02:05:28;6.28;;;4.18;;
61635;SDS011;59438;45.014;39.006;2023-07-08T02:07:54;8.85;;;4.15;;
61635;SDS011;59438;45.014;39.006;2023-07-08T02:10:21;5.78;;;4.15;;
61635;SDS011;59438;45.014;39.006;2023-07-08T02:12:47;6.40;;;4.40;;
61635;SDS011;59438;45.014;39.006;2023-07-08T02:15:15;6.85;;;4.68;;
61635;SDS011;59438;45.014;39.006;2023-07-08T02:17:41;11.02;;;4.93;;
61635;SDS011;59438;45.014;39.006;2023-07-08T02:20:08;9.38;;;5.40;;
61635;SDS011;59438;45.014;39.006;2023-07-08T02:22:34;8.02;;;4.93;;
61635;SDS011;59438;45.014;39.006;2023-07-08T02:25:01;10.23;;;4.78;;
61635;SDS011;59438;45.014;39.006;2023-07-08T02:27:27;10.73;;;5.07;;
61635;SDS011;59438;45.014;39.006;2023-07-08T02:29:53;9.52;;;5.72;;
61635;SDS011;59438;45.014;39.006;2023-07-08T02:32:21;14.80;;;5.55;;
61635;SDS011;59438;45.014;39.006;2023-07-08T02:34:47;7.97;;;5.25;;
61635;SDS011;59438;45.014;39.006;2023-07-08T02:37:14;7.35;;;5.35;;
61635;SDS011;59438;45.014;39.006;2023-07-08T02:39:40;6.68;;;5.25;;
61635;SDS011;59438;45.014;39.006;2023-07-08T02:42:06;9.27;;;5.57;;
61635;SDS011;59438;45.014;39.006;2023-07-08T02:44:33;7.57;;;5.03;;
61635;SDS011;59438;45.014;39.006;2023-07-08T02:46:59;7.50;;;5.15;;
61635;SDS011;59438;45.014;39.006;2023-07-08T02:49:27;7.97;;;4.72;;
61635;SDS011;59438;45.014;39.006;2023-07-08T02:51:54;6.90;;;4.75;;
61635;SDS011;59438;45.014;39.006;2023-07-08T02:54:20;7.47;;;4.40;;
61635;SDS011;59438;45.014;39.006;2023-07-08T02:56:46;5.25;;;4.32;;
61635;SDS011;59438;45.014;39.006;2023-07-08T02:59:13;8.65;;;4.28;;
61635;SDS011;59438;45.014;39.006;2023-07-08T03:01:39;6.47;;;4.57;;
61635;SDS011;59438;45.014;39.006;2023-07-08T03:04:05;8.38;;;4.43;;
61635;SDS011;59438;45.014;39.006;2023-07-08T03:06:33;4.80;;;4.28;;
61635;SDS011;59438;45.014;39.006;2023-07-08T03:09:00;7.82;;;4.70;;
61635;SDS011;59438;45.014;39.006;2023-07-08T03:11:26;11.35;;;4.93;;
61635;SDS011;59438;45.014;39.006;2023-07-08T03:13:53;5.85;;;4.90;;
61635;SDS011;59438;45.014;39.006;2023-07-08T03:16:19;7.65;;;4.55;;
61635;SDS011;59438;45.014;39.006;2023-07-08T03:18:45;7.00;;;4.63;;
61635;SDS011;59438;45.014;39.006;2023-07-08T03:21:12;8.32;;;4.43;;
61635;SDS011;59438;45.014;39.006;2023-07-08T03:23:40;9.23;;;4.10;;
61635;SDS011;59438;45.014;39.006;2023-07-08T03:26:07;8.43;;;4.60;;
61635;SDS011;59438;45.014;39.006;2023-07-08T03:28:38;6.50;;;4.53;;
61635;SDS011;59438;45.014;39.006;2023-07-08T03:31:04;7.70;;;4.20;;
61635;SDS011;59438;45.014;39.006;2023-07-08T03:33:33;6.35;;;4.32;;
61635;SDS011;59438;45.014;39.006;2023-07-08T03:36:00;5.97;;;4.43;;
61635;SDS011;59438;45.014;39.006;2023-07-08T03:38:26;8.35;;;4.50;;
61635;SDS011;59438;45.014;39.006;2023-07-08T03:40:54;6.10;;;4.65;;
61635;SDS011;59438;45.014;39.006;2023-07-08T03:43:20;6.03;;;3.90;;
61635;SDS011;59438;45.014;39.006;2023-07-08T03:45:47;7.68;;;4.35;;
61635;SDS011;59438;45.014;39.006;2023-07-08T03:48:13;9.30;;;4.50;;
61635;SDS011;59438;45.014;39.006;2023-07-08T03:50:39;8.00;;;4.43;;
61635;SDS011;59438;45.014;39.006;2023-07-08T03:53:06;5.43;;;4.18;;
61635;SDS011;59438;45.014;39.006;2023-07-08T03:55:34;7.05;;;4.22;;
61635;SDS011;59438;45.014;39.006;2023-07-08T03:58:02;8.10;;;4.30;;
61635;SDS011;59438;45.014;39.006;2023-07-08T04:00:28;5.85;;;4.25;;
61635;SDS011;59438;45.014;39.006;2023-07-08T04:02:55;5.22;;;4.10;;
61635;SDS011;59438;45.014;39.006;2023-07-08T04:05:22;5.32;;;4.00;;
61635;SDS011;59438;45.014;39.006;2023-07-08T04:07:49;7.25;;;4.30;;
61635;SDS011;59438;45.014;39.006;2023-07-08T04:10:15;5.05;;;4.30;;
61635;SDS011;59438;45.014;39.006;2023-07-08T04:12:41;7.22;;;4.10;;
61635;SDS011;59438;45.014;39.006;2023-07-08T04:15:10;5.53;;;3.80;;
61635;SDS011;59438;45.014;39.006;2023-07-08T04:17:38;5.78;;;4.25;;
61635;SDS011;59438;45.014;39.006;2023-07-08T04:20:08;9.07;;;3.97;;
61635;SDS011;59438;45.014;39.006;2023-07-08T04:22:36;5.10;;;3.90;;
61635;SDS011;59438;45.014;39.006;2023-07-08T04:25:02;7.50;;;4.05;;
61635;SDS011;59438;45.014;39.006;2023-07-08T04:27:29;6.28;;;4.00;;
61635;SDS011;59438;45.014;39.006;2023-07-08T04:29:55;7.72;;;3.70;;
61635;SDS011;59438;45.014;39.006;2023-07-08T04:32:23;7.07;;;3.80;;
61635;SDS011;59438;45.014;39.006;2023-07-08T04:37:34;9.63;;;4.10;;
61635;SDS011;59438;45.014;39.006;2023-07-08T04:40:00;5.15;;;3.60;;
61635;SDS011;59438;45.014;39.006;2023-07-08T04:42:26;6.93;;;4.03;;
61635;SDS011;59438;45.014;39.006;2023-07-08T04:44:53;5.80;;;3.72;;
61635;SDS011;59438;45.014;39.006;2023-07-08T04:47:19;6.28;;;3.88;;
61635;SDS011;59438;45.014;39.006;2023-07-08T04:49:47;5.07;;;3.75;;
61635;SDS011;59438;45.014;39.006;2023-07-08T04:52:13;5.38;;;3.70;;
61635;SDS011;59438;45.014;39.006;2023-07-08T04:54:40;7.82;;;3.97;;
61635;SDS011;59438;45.014;39.006;2023-07-08T04:57:07;7.63;;;3.53;;
61635;SDS011;59438;45.014;39.006;2023-07-08T04:59:33;7.00;;;3.88;;
61635;SDS011;59438;45.014;39.006;2023-07-08T05:02:00;8.77;;;4.00;;
61635;SDS011;59438;45.014;39.006;2023-07-08T05:04:26;6.72;;;4.00;;
61635;SDS011;59438;45.014;39.006;2023-07-08T05:06:54;7.78;;;4.00;;
61635;SDS011;59438;45.014;39.006;2023-07-08T05:09:20;5.45;;;3.65;;
61635;SDS011;59438;45.014;39.006;2023-07-08T05:11:46;6.45;;;3.90;;
61635;SDS011;59438;45.014;39.006;2023-07-08T05:14:13;7.13;;;3.80;;
61635;SDS011;59438;45.014;39.006;2023-07-08T05:16:39;6.35;;;3.72;;
61635;SDS011;59438;45.014;39.006;2023-07-08T05:19:06;7.43;;;3.67;;
61635;SDS011;59438;45.014;39.006;2023-07-08T05:21:33;7.03;;;3.83;;
61635;SDS011;59438;45.014;39.006;2023-07-08T05:24:01;10.32;;;3.80;;
61635;SDS011;59438;45.014;39.006;2023-07-08T05:26:27;5.95;;;3.80;;
61635;SDS011;59438;45.014;39.006;2023-07-08T05:28:54;5.90;;;3.55;;
61635;SDS011;59438;45.014;39.006;2023-07-08T05:31:20;6.55;;;3.95;;
61635;SDS011;59438;45.014;39.006;2023-07-08T05:33:47;9.90;;;3.83;;
61635;SDS011;59438;45.014;39.006;2023-07-08T05:36:13;7.30;;;3.78;;
61635;SDS011;59438;45.014;39.006;2023-07-08T05:38:39;9.60;;;3.80;;
61635;SDS011;59438;45.014;39.006;2023-07-08T05:41:07;6.47;;;3.80;;
61635;SDS011;59438;45.014;39.006;2023-07-08T05:43:33;5.63;;;3.28;;
61635;SDS011;59438;45.014;39.006;2023-07-08T05:46:00;4.40;;;3.20;;
61635;SDS011;59438;45.014;39.006;2023-07-08T05:48:27;4.38;;;2.90;;
61635;SDS011;59438;45.014;39.006;2023-07-08T05:50:53;4.82;;;3.47;;
61635;SDS011;59438;45.014;39.006;2023-07-08T05:53:22;8.35;;;3.28;;
61635;SDS011;59438;45.014;39.006;2023-07-08T05:55:48;4.75;;;3.30;;
61635;SDS011;59438;45.014;39.006;2023-07-08T05:58:17;6.68;;;3.47;;
61635;SDS011;59438;45.014;39.006;2023-07-08T06:00:44;4.70;;;3.35;;
61635;SDS011;59438;45.014;39.006;2023-07-08T06:03:10;7.20;;;3.63;;
61635;SDS011;59438;45.014;39.006;2023-07-08T06:05:37;5.55;;;3.60;;
61635;SDS011;59438;45.014;39.006;2023-07-08T06:08:04;7.40;;;3.75;;
61635;SDS011;59438;45.014;39.006;2023-07-08T06:10:32;7.53;;;3.63;;
61635;SDS011;59438;45.014;39.006;2023-07-08T06:12:58;4.68;;;3.42;;
61635;SDS011;59438;45.014;39.006;2023-07-08T06:15:26;6.10;;;3.38;;
61635;SDS011;59438;45.014;39.006;2023-07-08T06:17:53;5.60;;;3.70;;
61635;SDS011;59438;45.014;39.006;2023-07-08T06:20:19;5.78;;;3.28;;
61635;SDS011;59438;45.014;39.006;2023-07-08T06:22:46;6.30;;;3.30;;
61635;SDS011;59438;45.014;39.006;2023-07-08T06:25:12;8.63;;;3.40;;
61635;SDS011;59438;45.014;39.006;2023-07-08T06:27:38;5.90;;;3.72;;
61635;SDS011;59438;45.014;39.006;2023-07-08T06:30:05;5.55;;;3.90;;
61635;SDS011;59438;45.014;39.006;2023-07-08T06:32:35;8.07;;;3.42;;
61635;SDS011;59438;45.014;39.006;2023-07-08T06:35:02;7.47;;;3.45;;
61635;SDS011;59438;45.014;39.006;2023-07-08T06:37:28;7.70;;;3.60;;
61635;SDS011;59438;45.014;39.006;2023-07-08T06:39:55;6.68;;;3.63;;
61635;SDS011;59438;45.014;39.006;2023-07-08T06:42:21;6.75;;;3.15;;
61635;SDS011;59438;45.014;39.006;2023-07-08T06:44:48;5.10;;;3.30;;
61635;SDS011;59438;45.014;39.006;2023-07-08T06:47:14;9.25;;;3.55;;
61635;SDS011;59438;45.014;39.006;2023-07-08T06:49:42;7.68;;;3.55;;
61635;SDS011;59438;45.014;39.006;2023-07-08T06:52:08;7.22;;;3.40;;
61635;SDS011;59438;45.014;39.006;2023-07-08T06:54:35;7.30;;;3.55;;
61635;SDS011;59438;45.014;39.006;2023-07-08T06:57:01;5.78;;;3.55;;
61635;SDS011;59438;45.014;39.006;2023-07-08T06:59:28;6.85;;;3.38;;
61635;SDS011;59438;45.014;39.006;2023-07-08T07:01:54;7.90;;;3.70;;
61635;SDS011;59438;45.014;39.006;2023-07-08T07:04:20;6.10;;;3.17;;
61635;SDS011;59438;45.014;39.006;2023-07-08T07:06:48;5.35;;;3.20;;
61635;SDS011;59438;45.014;39.006;2023-07-08T07:09:15;6.03;;;3.30;;
61635;SDS011;59438;45.014;39.006;2023-07-08T07:11:41;6.38;;;3.25;;
61635;SDS011;59438;45.014;39.006;2023-07-08T07:14:07;6.45;;;3.30;;
61635;SDS011;59438;45.014;39.006;2023-07-08T07:16:34;7.10;;;3.47;;
61635;SDS011;59438;45.014;39.006;2023-07-08T07:19:00;6.45;;;3.10;;
61635;SDS011;59438;45.014;39.006;2023-07-08T07:21:27;4.25;;;3.20;;
61635;SDS011;59438;45.014;39.006;2023-07-08T07:23:55;5.53;;;3.47;;
61635;SDS011;59438;45.014;39.006;2023-07-08T07:26:21;6.13;;;3.92;;
61635;SDS011;59438;45.014;39.006;2023-07-08T07:28:48;6.57;;;3.40;;
61635;SDS011;59438;45.014;39.006;2023-07-08T07:31:14;8.38;;;3.30;;
61635;SDS011;59438;45.014;39.006;2023-07-08T07:33:40;5.18;;;3.28;;
61635;SDS011;59438;45.014;39.006;2023-07-08T07:36:07;5.60;;;3.40;;
61635;SDS011;59438;45.014;39.006;2023-07-08T07:38:33;6.63;;;3.10;;
61635;SDS011;59438;45.014;39.006;2023-07-08T07:41:01;4.85;;;3.30;;
61635;SDS011;59438;45.014;39.006;2023-07-08T07:43:27;3.92;;;2.92;;
61635;SDS011;59438;45.014;39.006;2023-07-08T07:45:54;5.40;;;2.92;;
61635;SDS011;59438;45.014;39.006;2023-07-08T07:48:20;4.90;;;3.00;;
61635;SDS011;59438;45.014;39.006;2023-07-08T07:50:47;7.88;;;3.85;;
61635;SDS011;59438;45.014;39.006;2023-07-08T07:53:14;4.28;;;2.95;;
61635;SDS011;59438;45.014;39.006;2023-07-08T07:55:40;5.70;;;3.08;;
61635;SDS011;59438;45.014;39.006;2023-07-08T07:58:08;5.22;;;3.00;;
61635;SDS011;59438;45.014;39.006;2023-07-08T08:00:34;3.67;;;2.85;;
61635;SDS011;59438;45.014;39.006;2023-07-08T08:03:01;4.25;;;2.90;;
61635;SDS011;59438;45.014;39.006;2023-07-08T08:05:27;4.18;;;2.83;;
61635;SDS011;59438;45.014;39.006;2023-07-08T08:07:53;6.47;;;2.70;;
61635;SDS011;59438;45.014;39.006;2023-07-08T08:10:20;5.43;;;2.92;;
61635;SDS011;59438;45.014;39.006;2023-07-08T08:12:46;3.60;;;2.47;;
61635;SDS011;59438;45.014;39.006;2023-07-08T08:15:14;2.70;;;1.95;;
61635;SDS011;59438;45.014;39.006;2023-07-08T08:17:40;4.45;;;2.13;;
61635;SDS011;59438;45.014;39.006;2023-07-08T08:20:07;4.03;;;2.10;;
61635;SDS011;59438;45.014;39.006;2023-07-08T08:22:34;2.33;;;2.13;;
61635;SDS011;59438;45.014;39.006;2023-07-08T08:25:00;4.00;;;2.20;;
61635;SDS011;59438;45.014;39.006;2023-07-08T08:27:26;3.53;;;1.80;;
61635;SDS011;59438;45.014;39.006;2023-07-08T08:29:53;4.75;;;2.67;;
61635;SDS011;59438;45.014;39.006;2023-07-08T08:32:20;3.75;;;2.22;;
61635;SDS011;59438;45.014;39.006;2023-07-08T08:34:47;6.20;;;2.80;;
61635;SDS011;59438;45.014;39.006;2023-07-08T08:37:13;3.30;;;2.03;;
61635;SDS011;59438;45.014;39.006;2023-07-08T08:39:40;4.80;;;2.92;;
61635;SDS011;59438;45.014;39.006;2023-07-08T08:42:07;5.38;;;3.00;;
61635;SDS011;59438;45.014;39.006;2023-07-08T08:44:42;7.07;;;2.53;;
61635;SDS011;59438;45.014;39.006;2023-07-08T08:47:11;4.22;;;2.53;;
61635;SDS011;59438;45.014;39.006;2023-07-08T08:49:50;5.72;;;2.20;;
61635;SDS011;59438;45.014;39.006;2023-07-08T08:52:22;3.35;;;2.17;;
61635;SDS011;59438;45.014;39.006;2023-07-08T08:54:49;3.67;;;2.30;;
61635;SDS011;59438;45.014;39.006;2023-07-08T08:57:17;5.03;;;2.30;;
61635;SDS011;59438;45.014;39.006;2023-07-08T08:59:53;2.88;;;2.30;;
61635;SDS011;59438;45.014;39.006;2023-07-08T09:02:26;3.53;;;2.42;;
61635;SDS011;59438;45.014;39.006;2023-07-08T09:05:01;7.18;;;2.60;;
61635;SDS011;59438;45.014;39.006;2023-07-08T09:07:29;5.05;;;2.40;;
61635;SDS011;59438;45.014;39.006;2023-07-08T09:10:03;6.53;;;2.92;;
61635;SDS011;59438;45.014;39.006;2023-07-08T09:12:35;7.47;;;3.40;;
61635;SDS011;59438;45.014;39.006;2023-07-08T09:15:07;3.80;;;2.67;;
61635;SDS011;59438;45.014;39.006;2023-07-08T09:17:39;5.55;;;2.60;;
61635;SDS011;59438;45.014;39.006;2023-07-08T09:20:17;3.63;;;2.55;;
61635;SDS011;59438;45.014;39.006;2023-07-08T09:22:48;8.75;;;4.75;;
61635;SDS011;59438;45.014;39.006;2023-07-08T09:25:22;8.23;;;4.57;;
61635;SDS011;59438;45.014;39.006;2023-07-08T09:27:51;7.63;;;4.47;;
61635;SDS011;59438;45.014;39.006;2023-07-08T09:30:18;7.05;;;4.00;;
61635;SDS011;59438;45.014;39.006;2023-07-08T09:32:46;5.75;;;3.90;;
61635;SDS011;59438;45.014;39.006;2023-07-08T09:35:18;6.28;;;3.63;;
61635;SDS011;59438;45.014;39.006;2023-07-08T09:37:47;6.68;;;3.10;;
61635;SDS011;59438;45.014;39.006;2023-07-08T09:40:15;6.43;;;4.05;;
61635;SDS011;59438;45.014;39.006;2023-07-08T09:42:43;5.13;;;3.20;;
61635;SDS011;59438;45.014;39.006;2023-07-08T09:45:15;7.10;;;4.05;;
61635;SDS011;59438;45.014;39.006;2023-07-08T09:47:44;4.70;;;2.80;;
61635;SDS011;59438;45.014;39.006;2023-07-08T09:50:17;8.27;;;3.67;;
61635;SDS011;59438;45.014;39.006;2023-07-08T09:52:46;4.95;;;3.10;;
61635;SDS011;59438;45.014;39.006;2023-07-08T09:55:13;5.35;;;3.97;;
61635;SDS011;59438;45.014;39.006;2023-07-08T09:57:40;7.07;;;2.88;;
61635;SDS011;59438;45.014;39.006;2023-07-08T10:00:10;6.90;;;3.85;;
61635;SDS011;59438;45.014;39.006;2023-07-08T10:02:39;9.43;;;3.50;;
61635;SDS011;59438;45.014;39.006;2023-07-08T10:05:12;6.10;;;3.13;;
61635;SDS011;59438;45.014;39.006;2023-07-08T10:07:43;5.32;;;2.80;;
61635;SDS011;59438;45.014;39.006;2023-07-08T10:10:12;5.60;;;2.70;;
61635;SDS011;59438;45.014;39.006;2023-07-08T10:12:41;4.40;;;2.47;;
61635;SDS011;59438;45.014;39.006;2023-07-08T10:15:15;4.15;;;2.08;;
61635;SDS011;59438;45.014;39.006;2023-07-08T10:17:48;4.63;;;2.20;;
61635;SDS011;59438;45.014;39.006;2023-07-08T10:20:14;3.80;;;2.20;;
61635;SDS011;59438;45.014;39.006;2023-07-08T10:22:45;4.15;;;2.10;;
61635;SDS011;59438;45.014;39.006;2023-07-08T10:25:23;3.30;;;1.85;;
61635;SDS011;59438;45.014;39.006;2023-07-08T10:27:56;2.42;;;1.80;;
61635;SDS011;59438;45.014;39.006;2023-07-08T10:30:29;4.93;;;2.10;;
61635;SDS011;59438;45.014;39.006;2023-07-08T10:33:09;3.33;;;2.20;;
61635;SDS011;59438;45.014;39.006;2023-07-08T10:36:00;3.47;;;2.00;;
61635;SDS011;59438;45.014;39.006;2023-07-08T10:38:43;5.90;;;2.20;;
61635;SDS011;59438;45.014;39.006;2023-07-08T10:41:21;5.32;;;1.88;;
61635;SDS011;59438;45.014;39.006;2023-07-08T10:43:59;2.20;;;1.80;;
61635;SDS011;59438;45.014;39.006;2023-07-08T10:46:35;2.95;;;1.60;;
61635;SDS011;59438;45.014;39.006;2023-07-08T10:49:22;4.20;;;1.92;;
61635;SDS011;59438;45.014;39.006;2023-07-08T10:51:58;6.13;;;2.78;;
61635;SDS011;59438;45.014;39.006;2023-07-08T10:54:39;4.25;;;2.38;;
61635;SDS011;59438;45.014;39.006;2023-07-08T10:57:38;5.53;;;3.00;;
61635;SDS011;59438;45.014;39.006;2023-07-08T11:00:29;3.85;;;2.15;;
61635;SDS011;59438;45.014;39.006;2023-07-08T11:06:10;5.65;;;1.42;;
61635;SDS011;59438;45.014;39.006;2023-07-08T11:08:41;6.72;;;1.60;;
61635;SDS011;59438;45.014;39.006;2023-07-08T11:11:13;11.20;;;1.70;;
61635;SDS011;59438;45.014;39.006;2023-07-08T11:13:52;13.25;;;1.75;;
61635;SDS011;59438;45.014;39.006;2023-07-08T11:16:24;7.53;;;1.73;;
61635;SDS011;59438;45.014;39.006;2023-07-08T11:18:56;9.02;;;1.52;;
61635;SDS011;59438;45.014;39.006;2023-07-08T11:21:30;7.05;;;1.60;;
61635;SDS011;59438;45.014;39.006;2023-07-08T11:24:02;4.43;;;1.58;;
61635;SDS011;59438;45.014;39.006;2023-07-08T11:26:34;6.65;;;1.67;;
61635;SDS011;59438;45.014;39.006;2023-07-08T11:29:09;8.32;;;1.58;;
61635;SDS011;59438;45.014;39.006;2023-07-08T11:31:41;14.88;;;1.83;;
61635;SDS011;59438;45.014;39.006;2023-07-08T11:34:08;5.68;;;1.60;;
61635;SDS011;59438;45.014;39.006;2023-07-08T11:36:37;4.68;;;1.70;;
61635;SDS011;59438;45.014;39.006;2023-07-08T11:39:05;7.88;;;1.70;;
61635;SDS011;59438;45.014;39.006;2023-07-08T11:41:55;6.05;;;2.22;;
61635;SDS011;59438;45.014;39.006;2023-07-08T11:44:32;10.27;;;2.40;;
61635;SDS011;59438;45.014;39.006;2023-07-08T11:46:59;12.48;;;2.50;;
61635;SDS011;59438;45.014;39.006;2023-07-08T11:49:26;35.20;;;4.20;;
61635;SDS011;59438;45.014;39.006;2023-07-08T11:51:52;42.95;;;4.80;;
61635;SDS011;59438;45.014;39.006;2023-07-08T11:56:17;14.90;;;5.97;;
